sensor_id;sensor_type;location;lat;lon;timestamp;P1;durP1;ratioP1;P2;durP2;ratioP2
39782;SDS011;25462;51.164;17.100;2022-09-09T00:04:40;10.20;;;9.00;;
39782;SDS011;25462;51.164;17.100;2022-09-09T00:09:50;11.10;;;9.20;;
39782;SDS011;25462;51.164;17.100;2022-09-09T00:15:02;13.40;;;8.80;;
39782;SDS011;25462;51.164;17.100;2022-09-09T00:31:08;10.20;;;9.10;;
39782;SDS011;25462;51.164;17.100;2022-09-09T00:36:17;12.50;;;9.00;;
39782;SDS011;25462;51.164;17.100;2022-09-09T00:41:39;8.10;;;7.20;;
39782;SDS011;25462;51.164;17.100;2022-09-09T00:52:40;8.80;;;8.00;;
39782;SDS011;25462;51.164;17.100;2022-09-09T00:57:47;9.20;;;8.10;;
39782;SDS011;25462;51.164;17.100;2022-09-09T01:13:30;8.20;;;7.40;;
39782;SDS011;25462;51.164;17.100;2022-09-09T01:18:46;9.70;;;8.30;;
39782;SDS011;25462;51.164;17.100;2022-09-09T01:24:01;8.90;;;8.00;;
39782;SDS011;25462;51.164;17.100;2022-09-09T01:29:48;10.20;;;9.10;;
39782;SDS011;25462;51.164;17.100;2022-09-09T01:34:54;13.30;;;10.50;;
39782;SDS011;25462;51.164;17.100;2022-09-09T01:39:58;9.60;;;8.70;;
39782;SDS011;25462;51.164;17.100;2022-09-09T01:45:02;8.70;;;7.90;;
39782;SDS011;25462;51.164;17.100;2022-09-09T01:50:10;8.60;;;7.80;;
39782;SDS011;25462;51.164;17.100;2022-09-09T01:55:16;8.00;;;7.30;;
39782;SDS011;25462;51.164;17.100;2022-09-09T02:00:20;7.80;;;7.20;;
39782;SDS011;25462;51.164;17.100;2022-09-09T02:05:37;9.30;;;8.50;;
39782;SDS011;25462;51.164;17.100;2022-09-09T02:16:21;8.50;;;7.60;;
39782;SDS011;25462;51.164;17.100;2022-09-09T02:21:27;8.20;;;7.40;;
39782;SDS011;25462;51.164;17.100;2022-09-09T02:26:32;9.50;;;8.70;;
39782;SDS011;25462;51.164;17.100;2022-09-09T02:31:39;8.10;;;7.30;;
39782;SDS011;25462;51.164;17.100;2022-09-09T02:36:47;8.70;;;7.70;;
39782;SDS011;25462;51.164;17.100;2022-09-09T02:41:51;27.60;;;7.90;;
39782;SDS011;25462;51.164;17.100;2022-09-09T02:52:24;8.40;;;7.70;;
39782;SDS011;25462;51.164;17.100;2022-09-09T02:57:39;7.80;;;7.20;;
39782;SDS011;25462;51.164;17.100;2022-09-09T03:02:46;11.90;;;8.50;;
39782;SDS011;25462;51.164;17.100;2022-09-09T03:08:09;10.60;;;9.50;;
39782;SDS011;25462;51.164;17.100;2022-09-09T03:13:13;10.00;;;9.10;;
39782;SDS011;25462;51.164;17.100;2022-09-09T03:18:18;8.50;;;7.40;;
39782;SDS011;25462;51.164;17.100;2022-09-09T03:23:24;8.80;;;7.90;;
39782;SDS011;25462;51.164;17.100;2022-09-09T03:28:35;9.10;;;8.20;;
39782;SDS011;25462;51.164;17.100;2022-09-09T03:33:44;8.30;;;7.60;;
39782;SDS011;25462;51.164;17.100;2022-09-09T03:38:49;6.60;;;6.00;;
39782;SDS011;25462;51.164;17.100;2022-09-09T03:44:08;5.90;;;5.40;;
39782;SDS011;25462;51.164;17.100;2022-09-09T03:49:15;6.70;;;5.80;;
39782;SDS011;25462;51.164;17.100;2022-09-09T03:54:19;5.70;;;5.30;;
39782;SDS011;25462;51.164;17.100;2022-09-09T03:59:23;9.00;;;8.20;;
39782;SDS011;25462;51.164;17.100;2022-09-09T04:04:27;16.40;;;14.70;;
39782;SDS011;25462;51.164;17.100;2022-09-09T04:09:32;13.70;;;12.50;;
39782;SDS011;25462;51.164;17.100;2022-09-09T04:14:37;12.40;;;11.40;;
39782;SDS011;25462;51.164;17.100;2022-09-09T04:19:40;12.40;;;11.20;;
39782;SDS011;25462;51.164;17.100;2022-09-09T04:24:45;10.60;;;9.70;;
39782;SDS011;25462;51.164;17.100;2022-09-09T04:29:52;10.60;;;9.50;;
39782;SDS011;25462;51.164;17.100;2022-09-09T04:34:55;9.40;;;8.50;;
39782;SDS011;25462;51.164;17.100;2022-09-09T04:39:58;9.20;;;8.20;;
39782;SDS011;25462;51.164;17.100;2022-09-09T04:45:06;8.40;;;7.60;;
39782;SDS011;25462;51.164;17.100;2022-09-09T04:50:10;9.70;;;8.70;;
39782;SDS011;25462;51.164;17.100;2022-09-09T04:55:14;9.10;;;8.40;;
39782;SDS011;25462;51.164;17.100;2022-09-09T05:00:23;11.70;;;10.70;;
39782;SDS011;25462;51.164;17.100;2022-09-09T05:05:29;12.20;;;11.00;;
39782;SDS011;25462;51.164;17.100;2022-09-09T05:10:41;11.00;;;9.90;;
39782;SDS011;25462;51.164;17.100;2022-09-09T05:15:52;10.70;;;9.60;;
39782;SDS011;25462;51.164;17.100;2022-09-09T05:21:10;12.40;;;11.40;;
39782;SDS011;25462;51.164;17.100;2022-09-09T05:26:16;12.20;;;11.10;;
39782;SDS011;25462;51.164;17.100;2022-09-09T05:31:22;12.40;;;11.30;;
39782;SDS011;25462;51.164;17.100;2022-09-09T05:36:29;11.60;;;10.50;;
39782;SDS011;25462;51.164;17.100;2022-09-09T05:41:37;11.00;;;10.10;;
39782;SDS011;25462;51.164;17.100;2022-09-09T05:46:41;10.30;;;9.40;;
39782;SDS011;25462;51.164;17.100;2022-09-09T05:51:44;10.90;;;9.80;;
39782;SDS011;25462;51.164;17.100;2022-09-09T05:56:49;10.40;;;9.50;;
39782;SDS011;25462;51.164;17.100;2022-09-09T06:01:54;10.70;;;9.80;;
39782;SDS011;25462;51.164;17.100;2022-09-09T06:07:20;10.50;;;9.50;;
39782;SDS011;25462;51.164;17.100;2022-09-09T06:12:23;9.50;;;8.60;;
39782;SDS011;25462;51.164;17.100;2022-09-09T06:17:32;9.30;;;8.40;;
39782;SDS011;25462;51.164;17.100;2022-09-09T06:22:35;11.60;;;7.90;;
39782;SDS011;25462;51.164;17.100;2022-09-09T06:27:39;9.90;;;8.90;;
39782;SDS011;25462;51.164;17.100;2022-09-09T06:32:43;9.00;;;7.20;;
39782;SDS011;25462;51.164;17.100;2022-09-09T06:37:49;8.90;;;7.50;;
39782;SDS011;25462;51.164;17.100;2022-09-09T06:42:53;7.20;;;6.60;;
39782;SDS011;25462;51.164;17.100;2022-09-09T06:48:09;8.60;;;6.10;;
39782;SDS011;25462;51.164;17.100;2022-09-09T06:53:18;6.20;;;5.70;;
39782;SDS011;25462;51.164;17.100;2022-09-09T06:58:25;6.40;;;5.50;;
39782;SDS011;25462;51.164;17.100;2022-09-09T07:03:29;6.30;;;5.70;;
39782;SDS011;25462;51.164;17.100;2022-09-09T07:08:33;8.50;;;6.20;;
39782;SDS011;25462;51.164;17.100;2022-09-09T07:13:38;7.10;;;5.80;;
39782;SDS011;25462;51.164;17.100;2022-09-09T07:18:42;7.60;;;5.70;;
39782;SDS011;25462;51.164;17.100;2022-09-09T07:23:53;9.40;;;5.90;;
39782;SDS011;25462;51.164;17.100;2022-09-09T07:29:01;6.30;;;5.80;;
39782;SDS011;25462;51.164;17.100;2022-09-09T07:34:06;8.60;;;5.20;;
39782;SDS011;25462;51.164;17.100;2022-09-09T07:39:11;5.60;;;4.70;;
39782;SDS011;25462;51.164;17.100;2022-09-09T07:44:24;5.80;;;5.00;;
39782;SDS011;25462;51.164;17.100;2022-09-09T07:49:38;4.80;;;3.60;;
39782;SDS011;25462;51.164;17.100;2022-09-09T07:54:50;4.60;;;3.30;;
39782;SDS011;25462;51.164;17.100;2022-09-09T07:59:57;2.50;;;2.30;;
39782;SDS011;25462;51.164;17.100;2022-09-09T08:05:01;3.90;;;2.20;;
39782;SDS011;25462;51.164;17.100;2022-09-09T08:10:08;3.20;;;2.10;;
39782;SDS011;25462;51.164;17.100;2022-09-09T08:15:15;2.70;;;1.60;;
39782;SDS011;25462;51.164;17.100;2022-09-09T08:20:19;1.90;;;1.80;;
39782;SDS011;25462;51.164;17.100;2022-09-09T08:25:23;5.00;;;1.50;;
39782;SDS011;25462;51.164;17.100;2022-09-09T08:30:30;4.00;;;1.40;;
39782;SDS011;25462;51.164;17.100;2022-09-09T08:35:36;2.10;;;1.50;;
39782;SDS011;25462;51.164;17.100;2022-09-09T08:40:43;1.10;;;0.90;;
39782;SDS011;25462;51.164;17.100;2022-09-09T08:45:57;1.10;;;1.00;;
39782;SDS011;25462;51.164;17.100;2022-09-09T08:51:04;5.60;;;2.30;;
39782;SDS011;25462;51.164;17.100;2022-09-09T08:56:14;3.30;;;1.20;;
39782;SDS011;25462;51.164;17.100;2022-09-09T09:01:49;2.10;;;1.00;;
39782;SDS011;25462;51.164;17.100;2022-09-09T09:07:26;3.90;;;1.30;;
39782;SDS011;25462;51.164;17.100;2022-09-09T09:12:39;4.00;;;1.30;;
39782;SDS011;25462;51.164;17.100;2022-09-09T09:17:46;2.00;;;1.20;;
39782;SDS011;25462;51.164;17.100;2022-09-09T09:22:52;1.10;;;0.90;;
39782;SDS011;25462;51.164;17.100;2022-09-09T09:27:59;3.00;;;1.30;;
39782;SDS011;25462;51.164;17.100;2022-09-09T09:33:19;1.90;;;1.00;;
39782;SDS011;25462;51.164;17.100;2022-09-09T09:38:32;1.00;;;0.80;;
39782;SDS011;25462;51.164;17.100;2022-09-09T09:43:57;2.10;;;1.00;;
39782;SDS011;25462;51.164;17.100;2022-09-09T09:49:04;4.30;;;1.50;;
39782;SDS011;25462;51.164;17.100;2022-09-09T09:59:24;1.80;;;1.20;;
39782;SDS011;25462;51.164;17.100;2022-09-09T10:05:05;2.20;;;1.50;;
39782;SDS011;25462;51.164;17.100;2022-09-09T10:10:25;4.40;;;1.50;;
39782;SDS011;25462;51.164;17.100;2022-09-09T10:21:02;2.00;;;1.20;;
39782;SDS011;25462;51.164;17.100;2022-09-09T10:31:40;2.30;;;1.10;;
39782;SDS011;25462;51.164;17.100;2022-09-09T10:36:46;1.20;;;0.80;;
39782;SDS011;25462;51.164;17.100;2022-09-09T10:58:32;2.50;;;0.70;;
39782;SDS011;25462;51.164;17.100;2022-09-09T11:03:48;2.30;;;0.80;;
39782;SDS011;25462;51.164;17.100;2022-09-09T11:08:56;1.20;;;0.90;;
39782;SDS011;25462;51.164;17.100;2022-09-09T11:14:08;2.70;;;0.90;;
39782;SDS011;25462;51.164;17.100;2022-09-09T11:24:38;1.80;;;0.60;;
39782;SDS011;25462;51.164;17.100;2022-09-09T11:29:49;3.00;;;1.80;;
39782;SDS011;25462;51.164;17.100;2022-09-09T11:40:35;1.50;;;0.80;;
39782;SDS011;25462;51.164;17.100;2022-09-09T11:45:39;2.00;;;1.10;;
39782;SDS011;25462;51.164;17.100;2022-09-09T11:50:44;2.30;;;0.90;;
39782;SDS011;25462;51.164;17.100;2022-09-09T11:56:02;2.00;;;0.80;;
39782;SDS011;25462;51.164;17.100;2022-09-09T12:01:15;0.90;;;0.60;;
39782;SDS011;25462;51.164;17.100;2022-09-09T12:06:45;3.40;;;0.60;;
39782;SDS011;25462;51.164;17.100;2022-09-09T12:11:51;1.30;;;0.90;;
39782;SDS011;25462;51.164;17.100;2022-09-09T12:16:54;1.80;;;1.50;;
39782;SDS011;25462;51.164;17.100;2022-09-09T12:22:00;2.30;;;1.10;;
39782;SDS011;25462;51.164;17.100;2022-09-09T12:33:01;2.80;;;0.70;;
39782;SDS011;25462;51.164;17.100;2022-09-09T12:38:13;1.40;;;0.70;;
39782;SDS011;25462;51.164;17.100;2022-09-09T12:43:30;1.20;;;0.90;;
39782;SDS011;25462;51.164;17.100;2022-09-09T12:48:37;2.30;;;1.00;;
39782;SDS011;25462;51.164;17.100;2022-09-09T12:58:50;1.20;;;0.80;;
39782;SDS011;25462;51.164;17.100;2022-09-09T13:03:57;0.90;;;0.90;;
39782;SDS011;25462;51.164;17.100;2022-09-09T13:09:08;1.10;;;0.80;;
39782;SDS011;25462;51.164;17.100;2022-09-09T13:14:23;1.20;;;0.80;;
39782;SDS011;25462;51.164;17.100;2022-09-09T13:19:38;2.10;;;0.70;;
39782;SDS011;25462;51.164;17.100;2022-09-09T13:24:57;1.90;;;0.60;;
39782;SDS011;25462;51.164;17.100;2022-09-09T13:30:19;1.20;;;0.70;;
39782;SDS011;25462;51.164;17.100;2022-09-09T13:35:27;2.00;;;0.90;;
39782;SDS011;25462;51.164;17.100;2022-09-09T13:40:33;1.40;;;0.80;;
39782;SDS011;25462;51.164;17.100;2022-09-09T13:45:37;2.40;;;1.30;;
39782;SDS011;25462;51.164;17.100;2022-09-09T13:50:41;0.90;;;0.80;;
39782;SDS011;25462;51.164;17.100;2022-09-09T13:55:49;1.50;;;1.40;;
39782;SDS011;25462;51.164;17.100;2022-09-09T14:00:55;0.90;;;0.60;;
39782;SDS011;25462;51.164;17.100;2022-09-09T14:05:58;1.80;;;1.10;;
39782;SDS011;25462;51.164;17.100;2022-09-09T14:11:02;1.00;;;0.70;;
39782;SDS011;25462;51.164;17.100;2022-09-09T14:16:09;1.60;;;0.90;;
39782;SDS011;25462;51.164;17.100;2022-09-09T14:21:14;2.50;;;1.30;;
39782;SDS011;25462;51.164;17.100;2022-09-09T14:26:19;2.20;;;0.90;;
39782;SDS011;25462;51.164;17.100;2022-09-09T14:31:26;2.20;;;0.90;;
39782;SDS011;25462;51.164;17.100;2022-09-09T14:36:30;1.10;;;0.80;;
39782;SDS011;25462;51.164;17.100;2022-09-09T14:41:35;2.10;;;0.70;;
39782;SDS011;25462;51.164;17.100;2022-09-09T14:46:41;6.30;;;2.20;;
39782;SDS011;25462;51.164;17.100;2022-09-09T14:51:51;2.30;;;0.80;;
39782;SDS011;25462;51.164;17.100;2022-09-09T14:57:04;2.40;;;1.30;;
39782;SDS011;25462;51.164;17.100;2022-09-09T15:02:10;1.10;;;0.90;;
39782;SDS011;25462;51.164;17.100;2022-09-09T15:07:20;2.80;;;1.10;;
39782;SDS011;25462;51.164;17.100;2022-09-09T15:12:23;2.70;;;0.90;;
39782;SDS011;25462;51.164;17.100;2022-09-09T15:17:33;2.50;;;0.80;;
39782;SDS011;25462;51.164;17.100;2022-09-09T15:22:40;1.50;;;0.80;;
39782;SDS011;25462;51.164;17.100;2022-09-09T15:27:52;2.70;;;1.10;;
39782;SDS011;25462;51.164;17.100;2022-09-09T15:32:56;2.00;;;1.10;;
39782;SDS011;25462;51.164;17.100;2022-09-09T15:38:01;3.00;;;1.30;;
39782;SDS011;25462;51.164;17.100;2022-09-09T15:43:06;2.20;;;0.80;;
39782;SDS011;25462;51.164;17.100;2022-09-09T15:48:15;2.20;;;1.10;;
39782;SDS011;25462;51.164;17.100;2022-09-09T15:53:19;2.50;;;1.00;;
39782;SDS011;25462;51.164;17.100;2022-09-09T15:58:23;1.20;;;1.00;;
39782;SDS011;25462;51.164;17.100;2022-09-09T16:03:26;2.30;;;1.00;;
39782;SDS011;25462;51.164;17.100;2022-09-09T16:08:33;1.90;;;1.10;;
39782;SDS011;25462;51.164;17.100;2022-09-09T16:13:41;1.70;;;1.30;;
39782;SDS011;25462;51.164;17.100;2022-09-09T16:18:53;2.10;;;1.40;;
39782;SDS011;25462;51.164;17.100;2022-09-09T16:24:02;5.10;;;1.40;;
39782;SDS011;25462;51.164;17.100;2022-09-09T16:29:06;4.20;;;1.60;;
39782;SDS011;25462;51.164;17.100;2022-09-09T16:34:57;4.30;;;1.20;;
39782;SDS011;25462;51.164;17.100;2022-09-09T16:40:12;2.30;;;1.40;;
39782;SDS011;25462;51.164;17.100;2022-09-09T16:45:23;18.30;;;15.10;;
39782;SDS011;25462;51.164;17.100;2022-09-09T16:50:26;5.70;;;4.20;;
39782;SDS011;25462;51.164;17.100;2022-09-09T16:55:30;2.90;;;1.90;;
39782;SDS011;25462;51.164;17.100;2022-09-09T17:00:37;4.20;;;2.50;;
39782;SDS011;25462;51.164;17.100;2022-09-09T17:05:54;1.90;;;1.50;;
39782;SDS011;25462;51.164;17.100;2022-09-09T17:11:16;1.80;;;1.70;;
39782;SDS011;25462;51.164;17.100;2022-09-09T17:16:32;15.30;;;2.80;;
39782;SDS011;25462;51.164;17.100;2022-09-09T17:21:44;4.00;;;2.10;;
39782;SDS011;25462;51.164;17.100;2022-09-09T17:27:10;10.70;;;7.80;;
39782;SDS011;25462;51.164;17.100;2022-09-09T17:32:13;7.70;;;3.00;;
39782;SDS011;25462;51.164;17.100;2022-09-09T17:37:20;3.10;;;1.80;;
39782;SDS011;25462;51.164;17.100;2022-09-09T17:42:27;5.40;;;1.70;;
39782;SDS011;25462;51.164;17.100;2022-09-09T17:47:31;2.40;;;1.70;;
39782;SDS011;25462;51.164;17.100;2022-09-09T17:52:35;3.10;;;2.00;;
39782;SDS011;25462;51.164;17.100;2022-09-09T17:57:44;3.00;;;2.00;;
39782;SDS011;25462;51.164;17.100;2022-09-09T18:02:53;5.30;;;2.00;;
39782;SDS011;25462;51.164;17.100;2022-09-09T18:07:59;3.50;;;2.00;;
39782;SDS011;25462;51.164;17.100;2022-09-09T18:13:12;11.10;;;2.00;;
39782;SDS011;25462;51.164;17.100;2022-09-09T18:18:18;1.60;;;1.30;;
39782;SDS011;25462;51.164;17.100;2022-09-09T18:23:23;3.40;;;1.80;;
39782;SDS011;25462;51.164;17.100;2022-09-09T18:28:32;3.20;;;2.00;;
39782;SDS011;25462;51.164;17.100;2022-09-09T18:33:49;2.30;;;1.70;;
39782;SDS011;25462;51.164;17.100;2022-09-09T18:39:00;1.60;;;1.50;;
39782;SDS011;25462;51.164;17.100;2022-09-09T18:44:15;5.10;;;2.50;;
39782;SDS011;25462;51.164;17.100;2022-09-09T18:49:27;5.90;;;3.00;;
39782;SDS011;25462;51.164;17.100;2022-09-09T18:54:40;5.70;;;4.00;;
39782;SDS011;25462;51.164;17.100;2022-09-09T18:59:47;4.20;;;3.80;;
39782;SDS011;25462;51.164;17.100;2022-09-09T19:04:59;10.80;;;3.90;;
39782;SDS011;25462;51.164;17.100;2022-09-09T19:10:06;6.00;;;4.20;;
39782;SDS011;25462;51.164;17.100;2022-09-09T19:15:17;7.20;;;4.00;;
39782;SDS011;25462;51.164;17.100;2022-09-09T19:20:20;5.30;;;3.90;;
39782;SDS011;25462;51.164;17.100;2022-09-09T19:25:26;8.70;;;5.60;;
39782;SDS011;25462;51.164;17.100;2022-09-09T19:30:29;6.90;;;5.70;;
39782;SDS011;25462;51.164;17.100;2022-09-09T19:35:39;5.70;;;4.90;;
39782;SDS011;25462;51.164;17.100;2022-09-09T19:40:46;8.20;;;4.80;;
39782;SDS011;25462;51.164;17.100;2022-09-09T19:45:56;6.80;;;3.90;;
39782;SDS011;25462;51.164;17.100;2022-09-09T19:51:06;4.90;;;3.90;;
39782;SDS011;25462;51.164;17.100;2022-09-09T19:56:11;5.60;;;4.20;;
39782;SDS011;25462;51.164;17.100;2022-09-09T20:01:28;6.40;;;4.00;;
39782;SDS011;25462;51.164;17.100;2022-09-09T20:07:17;4.40;;;3.40;;
39782;SDS011;25462;51.164;17.100;2022-09-09T20:12:21;3.00;;;2.60;;
39782;SDS011;25462;51.164;17.100;2022-09-09T20:17:24;2.60;;;2.40;;
39782;SDS011;25462;51.164;17.100;2022-09-09T20:22:28;3.90;;;2.60;;
39782;SDS011;25462;51.164;17.100;2022-09-09T20:27:31;5.10;;;3.20;;
39782;SDS011;25462;51.164;17.100;2022-09-09T20:32:35;5.60;;;3.00;;
39782;SDS011;25462;51.164;17.100;2022-09-09T20:37:38;5.90;;;2.80;;
39782;SDS011;25462;51.164;17.100;2022-09-09T20:42:42;4.20;;;2.80;;
39782;SDS011;25462;51.164;17.100;2022-09-09T20:47:56;7.70;;;3.20;;
39782;SDS011;25462;51.164;17.100;2022-09-09T20:52:59;3.30;;;3.00;;
39782;SDS011;25462;51.164;17.100;2022-09-09T20:58:02;6.70;;;3.10;;
39782;SDS011;25462;51.164;17.100;2022-09-09T21:03:06;5.10;;;3.60;;
39782;SDS011;25462;51.164;17.100;2022-09-09T21:08:09;5.20;;;3.40;;
39782;SDS011;25462;51.164;17.100;2022-09-09T21:13:13;3.30;;;2.10;;
39782;SDS011;25462;51.164;17.100;2022-09-09T21:18:17;6.10;;;3.70;;
39782;SDS011;25462;51.164;17.100;2022-09-09T21:23:20;3.80;;;2.60;;
39782;SDS011;25462;51.164;17.100;2022-09-09T21:28:25;5.10;;;3.20;;
39782;SDS011;25462;51.164;17.100;2022-09-09T21:33:28;5.90;;;3.00;;
39782;SDS011;25462;51.164;17.100;2022-09-09T21:38:35;5.00;;;1.30;;
39782;SDS011;25462;51.164;17.100;2022-09-09T21:43:45;4.10;;;1.40;;
39782;SDS011;25462;51.164;17.100;2022-09-09T21:48:56;2.40;;;2.00;;
39782;SDS011;25462;51.164;17.100;2022-09-09T21:54:00;3.70;;;1.70;;
39782;SDS011;25462;51.164;17.100;2022-09-09T21:59:06;2.10;;;1.50;;
39782;SDS011;25462;51.164;17.100;2022-09-09T22:04:10;3.30;;;1.60;;
39782;SDS011;25462;51.164;17.100;2022-09-09T22:09:18;2.90;;;1.70;;
39782;SDS011;25462;51.164;17.100;2022-09-09T22:14:25;3.20;;;1.60;;
39782;SDS011;25462;51.164;17.100;2022-09-09T22:19:30;1.60;;;1.20;;
39782;SDS011;25462;51.164;17.100;2022-09-09T22:24:33;2.20;;;1.90;;
39782;SDS011;25462;51.164;17.100;2022-09-09T22:29:40;6.60;;;2.50;;
39782;SDS011;25462;51.164;17.100;2022-09-09T22:34:44;3.50;;;2.70;;
39782;SDS011;25462;51.164;17.100;2022-09-09T22:39:52;6.40;;;2.30;;
39782;SDS011;25462;51.164;17.100;2022-09-09T22:44:55;6.70;;;2.50;;
39782;SDS011;25462;51.164;17.100;2022-09-09T22:49:59;3.60;;;2.30;;
39782;SDS011;25462;51.164;17.100;2022-09-09T22:55:08;3.20;;;2.50;;
39782;SDS011;25462;51.164;17.100;2022-09-09T23:00:14;4.90;;;2.30;;
39782;SDS011;25462;51.164;17.100;2022-09-09T23:05:18;4.10;;;2.20;;
39782;SDS011;25462;51.164;17.100;2022-09-09T23:10:24;2.30;;;1.70;;
39782;SDS011;25462;51.164;17.100;2022-09-09T23:15:34;3.80;;;2.00;;
39782;SDS011;25462;51.164;17.100;2022-09-09T23:20:42;3.80;;;1.90;;
39782;SDS011;25462;51.164;17.100;2022-09-09T23:25:48;1.80;;;1.70;;
39782;SDS011;25462;51.164;17.100;2022-09-09T23:30:51;3.50;;;1.40;;
39782;SDS011;25462;51.164;17.100;2022-09-09T23:35:58;4.60;;;1.70;;
39782;SDS011;25462;51.164;17.100;2022-09-09T23:41:03;2.90;;;1.60;;
39782;SDS011;25462;51.164;17.100;2022-09-09T23:46:12;1.80;;;1.40;;
39782;SDS011;25462;51.164;17.100;2022-09-09T23:51:18;3.00;;;1.90;;
39782;SDS011;25462;51.164;17.100;2022-09-09T23:56:28;3.80;;;2.60;;
